createdAt,value
2019-01-16T00:00:30.925Z,99467.55
2019-01-16T00:03:20.516Z,99474.37
2019-01-16T00:06:06.030Z,99487.70
2019-01-16T00:08:51.524Z,99497.96
2019-01-16T00:11:27.147Z,99497.96
2019-01-16T00:14:16.810Z,99502.27
2019-01-16T00:16:58.460Z,99506.08
2019-01-16T00:20:00.059Z,99506.08
2019-01-16T00:22:52.588Z,99508.23
2019-01-16T00:25:33.848Z,99512.09
2019-01-16T00:28:35.894Z,99515.94
2019-01-16T00:31:31.368Z,99515.10
2019-01-16T00:34:08.628Z,99523.69
2019-01-16T00:36:55.307Z,99535.34
2019-01-16T00:39:44.781Z,99535.34
2019-01-16T00:42:34.377Z,99534.91
2019-01-16T00:45:33.333Z,99535.77
2019-01-16T00:48:24.589Z,99537.92
2019-01-16T00:51:09.962Z,99532.30
2019-01-16T00:53:59.609Z,99537.43
2019-01-16T00:56:41.031Z,99552.08
2019-01-16T00:59:42.942Z,99553.80
2019-01-16T01:02:35.747Z,99557.64
2019-01-16T01:05:15.204Z,99567.94
2019-01-16T01:08:08.088Z,99564.42
2019-01-16T01:10:50.918Z,99564.42
2019-01-16T01:13:43.391Z,99579.06
2019-01-16T01:16:28.561Z,99575.19
2019-01-16T01:19:18.347Z,99583.33
2019-01-16T01:22:05.025Z,99585.88
2019-01-16T01:25:03.874Z,99585.88
2019-01-16T01:27:43.032Z,99583.69
2019-01-16T01:30:22.846Z,99583.69
2019-01-16T01:33:24.874Z,99584.55
2019-01-16T01:36:10.170Z,99582.75
2019-01-16T01:38:47.484Z,99587.02
2019-01-16T01:41:34.161Z,99587.02
2019-01-16T01:44:19.492Z,99590.45
2019-01-16T01:46:57.894Z,99589.59
2019-01-16T01:49:43.440Z,99590.45
2019-01-16T01:52:33.038Z,99597.30
2019-01-16T01:55:22.716Z,99597.70
2019-01-16T01:58:12.065Z,99598.13
2019-01-16T02:00:57.299Z,99601.09
2019-01-16T02:03:59.213Z,99600.66
2019-01-16T02:06:54.697Z,99608.80
2019-01-16T02:09:32.560Z,99607.47
2019-01-16T02:12:37.391Z,99605.31
2019-01-16T02:15:41.231Z,99611.77
2019-01-16T02:18:30.912Z,99610.83
2019-01-16T02:21:27.050Z,99609.92
2019-01-16T02:24:12.668Z,99609.48
2019-01-16T02:27:11.583Z,99600.06
2019-01-16T02:29:59.116Z,99605.61
2019-01-16T02:32:48.682Z,99607.67
2019-01-16T02:35:50.258Z,99610.25
2019-01-16T02:38:39.208Z,99605.48
2019-01-16T02:41:25.896Z,99601.99
2019-01-16T02:44:11.321Z,99604.09
2019-01-16T02:47:04.236Z,99608.35
2019-01-16T02:49:44.945Z,99616.47
2019-01-16T02:52:30.474Z,99622.41
2019-01-16T02:55:20.096Z,99623.26
2019-01-16T02:58:15.683Z,99615.90
2019-01-16T03:01:17.479Z,99616.75
2019-01-16T03:04:02.647Z,99614.17
2019-01-16T03:06:52.257Z,99616.66
2019-01-16T03:09:31.261Z,99619.19
2019-01-16T03:12:13.449Z,99627.69
2019-01-16T03:15:02.987Z,99639.66
2019-01-16T03:17:49.675Z,99647.77
2019-01-16T03:20:54.861Z,99646.92
2019-01-16T03:23:53.551Z,99643.11
2019-01-16T03:26:42.886Z,99638.90
2019-01-16T03:29:35.249Z,99641.06
2019-01-16T03:32:17.508Z,99644.88
2019-01-16T03:35:02.864Z,99642.20
2019-01-16T03:37:58.628Z,99646.92
2019-01-16T03:40:43.891Z,99646.06
2019-01-16T03:43:17.051Z,99645.63
2019-01-16T03:45:57.755Z,99638.33
2019-01-16T03:48:44.484Z,99631.06
2019-01-16T03:51:46.217Z,99634.13
2019-01-16T03:54:38.717Z,99635.95
2019-01-16T03:57:33.433Z,99642.50
2019-01-16T04:00:25.012Z,99639.50
2019-01-16T04:03:11.693Z,99639.97
2019-01-16T04:06:10.373Z,99645.56
2019-01-16T04:08:55.519Z,99649.00
2019-01-16T04:11:36.404Z,99649.75
2019-01-16T04:14:22.381Z,99654.38
2019-01-16T04:17:21.053Z,99650.09
2019-01-16T04:20:25.781Z,99647.08
2019-01-16T04:23:15.094Z,99645.78
2019-01-16T04:26:07.430Z,99639.77
2019-01-16T04:28:54.111Z,99644.08
2019-01-16T04:31:43.997Z,99649.66
2019-01-16T04:34:39.621Z,99653.03
2019-01-16T04:37:38.229Z,99657.72
2019-01-16T04:40:31.049Z,99658.63
2019-01-16T04:43:16.294Z,99657.77
2019-01-16T04:46:12.082Z,99651.22
2019-01-16T04:48:57.194Z,99653.27
2019-01-16T04:51:53.070Z,99660.51
2019-01-16T04:54:57.819Z,99661.74
2019-01-16T04:57:36.794Z,99657.00
2019-01-16T05:00:36.598Z,99656.95
2019-01-16T05:03:29.095Z,99669.80
2019-01-16T05:06:31.085Z,99672.36
2019-01-16T05:09:20.772Z,99669.67
2019-01-16T05:12:10.216Z,99669.81
2019-01-16T05:14:55.509Z,99666.61
2019-01-16T05:17:48.312Z,99662.19
2019-01-16T05:20:44.040Z,99657.83
2019-01-16T05:23:33.692Z,99665.61
2019-01-16T05:26:29.516Z,99656.73
2019-01-16T05:29:15.256Z,99666.86
2019-01-16T05:32:04.901Z,99666.86
2019-01-16T05:35:03.560Z,99671.22
2019-01-16T05:37:49.891Z,99663.05
2019-01-16T05:40:39.209Z,99671.22
2019-01-16T05:43:25.916Z,99660.47
2019-01-16T05:46:18.288Z,99660.47
2019-01-16T05:49:05.192Z,99660.42
2019-01-16T05:51:46.964Z,99660.41
2019-01-16T05:54:45.479Z,99658.26
2019-01-16T05:57:41.059Z,99657.84
2019-01-16T06:00:29.995Z,99654.45
2019-01-16T06:03:15.911Z,99658.26
2019-01-16T06:06:05.521Z,99659.11
2019-01-16T06:08:52.236Z,99659.48
2019-01-16T06:11:38.907Z,99658.81
2019-01-16T06:14:34.539Z,99666.22
2019-01-16T06:17:18.697Z,99666.37
2019-01-16T06:20:04.127Z,99666.49
2019-01-16T06:22:53.895Z,99669.36
2019-01-16T06:25:40.586Z,99677.70
2019-01-16T06:28:27.260Z,99677.84
2019-01-16T06:31:15.920Z,99674.40
2019-01-16T06:34:05.340Z,99675.13
2019-01-16T06:36:52.053Z,99675.13
2019-01-16T06:39:35.337Z,99681.35
2019-01-16T06:42:07.905Z,99677.69
2019-01-16T06:44:57.229Z,99680.38
2019-01-16T06:47:49.903Z,99681.26
2019-01-16T06:50:45.534Z,99683.08
2019-01-16T06:53:44.149Z,99689.55
2019-01-16T06:56:29.420Z,99687.45
2019-01-16T06:59:05.774Z,99682.73
2019-01-16T07:01:46.654Z,99684.46
2019-01-16T07:04:41.953Z,99686.22
2019-01-16T07:07:22.629Z,99688.86
2019-01-16T07:10:21.258Z,99689.72
2019-01-16T07:13:14.695Z,99691.08
2019-01-16T07:16:07.448Z,99680.34
2019-01-16T07:18:52.816Z,99688.63
2019-01-16T07:21:57.767Z,99687.36
2019-01-16T07:24:44.501Z,99686.55
2019-01-16T07:27:31.184Z,99681.02
2019-01-16T07:30:20.768Z,99681.95
2019-01-16T07:33:10.228Z,99686.36
2019-01-16T07:36:15.003Z,99687.66
2019-01-16T07:39:13.024Z,99691.03
2019-01-16T07:42:02.424Z,99690.60
2019-01-16T07:44:47.623Z,99690.17
2019-01-16T07:47:29.060Z,99687.59
2019-01-16T07:50:17.136Z,99690.66
2019-01-16T07:53:10.573Z,99694.15
2019-01-16T07:55:55.932Z,99692.48
2019-01-16T07:58:37.023Z,99694.71
2019-01-16T08:01:10.002Z,99691.33
2019-01-16T08:04:05.733Z,99693.55
2019-01-16T08:06:51.035Z,99684.12
2019-01-16T08:09:42.379Z,99688.44
2019-01-16T08:12:28.400Z,99685.05
2019-01-16T08:15:13.864Z,99685.05
2019-01-16T08:18:06.599Z,99679.42
2019-01-16T08:20:51.696Z,99675.59
2019-01-16T08:23:37.160Z,99677.43
2019-01-16T08:26:36.102Z,99670.23
2019-01-16T08:29:29.110Z,99663.84
2019-01-16T08:32:14.504Z,99661.73
2019-01-16T08:34:59.899Z,99663.09
2019-01-16T08:37:45.584Z,99664.44
2019-01-16T08:40:32.239Z,99666.30
2019-01-16T08:43:10.122Z,99656.90
2019-01-16T08:45:56.825Z,99657.42
2019-01-16T08:48:58.549Z,99655.76
2019-01-16T08:51:54.109Z,99643.80
2019-01-16T08:54:45.931Z,99643.81
2019-01-16T08:57:32.033Z,99631.38
2019-01-16T09:00:24.475Z,99630.56
2019-01-16T09:03:29.660Z,99624.16
2019-01-16T09:06:19.441Z,99619.13
2019-01-16T09:09:04.257Z,99619.13
2019-01-16T09:11:45.952Z,99614.91
2019-01-16T09:14:40.340Z,99614.91
2019-01-16T09:17:36.377Z,99614.59
2019-01-16T09:20:17.144Z,99610.38
2019-01-16T09:23:02.745Z,99596.28
2019-01-16T09:25:49.064Z,99588.57
2019-01-16T09:28:41.713Z,99588.57
2019-01-16T09:31:29.301Z,99585.16
2019-01-16T09:34:11.401Z,99586.56
2019-01-16T09:36:58.077Z,99578.05
2019-01-16T09:39:43.715Z,99578.05
2019-01-16T09:42:30.382Z,99575.92
2019-01-16T09:45:15.918Z,99562.17
2019-01-16T09:48:09.856Z,99562.62
2019-01-16T09:50:56.526Z,99557.48
2019-01-16T09:53:41.617Z,99553.67
2019-01-16T09:56:27.061Z,99548.52
2019-01-16T09:59:05.644Z,99544.67
2019-01-16T10:02:01.189Z,99541.23
2019-01-16T10:04:47.960Z,99538.67
2019-01-16T10:07:54.242Z,99542.55
2019-01-16T10:10:41.646Z,99545.97
2019-01-16T10:13:34.088Z,99539.48
2019-01-16T10:16:15.083Z,99536.06
2019-01-16T10:19:07.939Z,99532.18
2019-01-16T10:21:57.908Z,99534.38
2019-01-16T10:24:43.433Z,99538.29
2019-01-16T10:27:32.980Z,99530.98
2019-01-16T10:30:18.131Z,99521.12
2019-01-16T10:33:10.960Z,99518.14
2019-01-16T10:36:03.622Z,99500.49
2019-01-16T10:38:49.140Z,99500.52
2019-01-16T10:41:47.891Z,99494.50
2019-01-16T10:44:34.560Z,99486.75
2019-01-16T10:47:19.713Z,99478.16
2019-01-16T10:50:18.504Z,99479.92
2019-01-16T10:53:05.212Z,99476.06
2019-01-16T10:55:46.291Z,99479.55
2019-01-16T10:58:28.089Z,99470.05
2019-01-16T11:01:33.147Z,99473.11
2019-01-16T11:04:16.404Z,99473.57
2019-01-16T11:07:18.371Z,99470.57
2019-01-16T11:10:09.947Z,99464.09
2019-01-16T11:12:56.616Z,99466.72
2019-01-16T11:15:52.419Z,99461.13
2019-01-16T11:18:37.630Z,99458.53
2019-01-16T11:21:23.226Z,99452.48
2019-01-16T11:24:22.053Z,99446.89
2019-01-16T11:27:04.745Z,99452.06
2019-01-16T11:30:03.498Z,99450.80
2019-01-16T11:32:50.179Z,99447.77
2019-01-16T11:35:36.867Z,99440.42
2019-01-16T11:38:29.774Z,99435.24
2019-01-16T11:41:05.755Z,99426.61
2019-01-16T11:43:49.306Z,99421.00
2019-01-16T11:46:25.250Z,99422.72
2019-01-16T11:49:14.796Z,99414.52
2019-01-16T11:52:13.814Z,99407.59
2019-01-16T11:54:58.881Z,99396.80
2019-01-16T11:57:48.619Z,99398.52
2019-01-16T12:00:35.387Z,99391.16
2019-01-16T12:03:12.273Z,99388.13
2019-01-16T12:05:57.476Z,99377.32
2019-01-16T12:08:35.760Z,99363.48
2019-01-16T12:11:14.475Z,99359.59
2019-01-16T12:13:59.695Z,99354.84
2019-01-16T12:16:52.497Z,99342.73
2019-01-16T12:19:41.972Z,99342.30
2019-01-16T12:22:26.646Z,99334.94
2019-01-16T12:25:11.928Z,99325.86
2019-01-16T12:28:07.704Z,99317.20
2019-01-16T12:30:50.292Z,99314.59
2019-01-16T12:33:39.883Z,99310.70
2019-01-16T12:36:26.661Z,99297.75
2019-01-16T12:39:13.389Z,99291.23
2019-01-16T12:42:12.030Z,99281.27
2019-01-16T12:44:53.531Z,99270.05
2019-01-16T12:47:36.390Z,99259.63
2019-01-16T12:50:14.552Z,99247.95
2019-01-16T12:53:03.108Z,99243.22
2019-01-16T12:55:49.433Z,99236.29
2019-01-16T12:58:34.721Z,99233.24
2019-01-16T13:01:15.757Z,99220.24
2019-01-16T13:04:06.576Z,99215.48
2019-01-16T13:07:05.450Z,99201.22
2019-01-16T13:09:52.116Z,99196.45
2019-01-16T13:12:37.410Z,99189.08
2019-01-16T13:15:24.767Z,99178.26
2019-01-16T13:18:10.425Z,99173.06
2019-01-16T13:21:06.152Z,99161.39
2019-01-16T13:23:44.177Z,99157.06
2019-01-16T13:26:30.834Z,99155.74
2019-01-16T13:29:16.134Z,99136.73
2019-01-16T13:32:01.607Z,99125.88
2019-01-16T13:34:44.322Z,99122.41
2019-01-16T13:37:33.934Z,99102.51
2019-01-16T13:40:23.487Z,99088.66
2019-01-16T13:43:22.008Z,99083.85
2019-01-16T13:46:07.532Z,99069.98
2019-01-16T13:49:00.316Z,99056.58
2019-01-16T13:51:52.871Z,99050.50
2019-01-16T13:54:38.701Z,99034.91
2019-01-16T13:57:24.119Z,99019.71
2019-01-16T14:00:09.569Z,99008.92
2019-01-16T14:02:55.029Z,98994.16
2019-01-16T14:05:32.954Z,98992.80
2019-01-16T14:08:18.308Z,98979.38
2019-01-16T14:11:14.019Z,98979.38
2019-01-16T14:14:00.674Z,98971.15
2019-01-16T14:17:02.933Z,98948.20
2019-01-16T14:19:58.488Z,98942.56
2019-01-16T14:22:43.850Z,98944.23
2019-01-16T14:25:39.538Z,98926.87
2019-01-16T14:28:32.105Z,98918.64
2019-01-16T14:31:26.558Z,98918.16
2019-01-16T14:34:11.928Z,98909.45
2019-01-16T14:37:07.532Z,98901.61
2019-01-16T14:39:56.860Z,98887.29
2019-01-16T14:42:46.384Z,98875.53
2019-01-16T14:45:45.041Z,98862.05
2019-01-16T14:48:40.839Z,98854.21
2019-01-16T14:51:36.370Z,98838.09
2019-01-16T14:54:19.147Z,98823.72
2019-01-16T14:57:00.815Z,98805.45
2019-01-16T14:59:49.901Z,98800.64
2019-01-16T15:02:30.054Z,98785.37
2019-01-16T15:05:34.856Z,98776.61
2019-01-16T15:08:20.697Z,98761.83
2019-01-16T15:11:22.589Z,98746.13
2019-01-16T15:14:10.070Z,98733.08
2019-01-16T15:17:02.838Z,98731.62
2019-01-16T15:19:54.343Z,98716.81
2019-01-16T15:22:32.162Z,98711.50
2019-01-16T15:25:34.305Z,98698.40
2019-01-16T15:28:20.218Z,98699.59
2019-01-16T15:31:09.581Z,98686.52
2019-01-16T15:34:11.227Z,98666.95
2019-01-16T15:36:52.204Z,98665.94
2019-01-16T15:39:38.877Z,98648.59
2019-01-16T15:42:26.080Z,98644.55
2019-01-16T15:45:05.560Z,98634.48
2019-01-16T15:48:01.472Z,98622.27
2019-01-16T15:51:03.195Z,98607.94
2019-01-16T15:53:55.525Z,98598.31
2019-01-16T15:56:42.226Z,98588.69
2019-01-16T15:59:34.993Z,98581.72
2019-01-16T16:02:20.555Z,98571.20
2019-01-16T16:05:11.366Z,98561.18
2019-01-16T16:07:52.482Z,98551.60
2019-01-16T16:10:54.521Z,98546.34
2019-01-16T16:13:34.799Z,98531.51
2019-01-16T16:16:14.921Z,98526.67
2019-01-16T16:19:00.403Z,98509.69
2019-01-16T16:21:46.054Z,98501.75
2019-01-16T16:24:44.968Z,98496.02
2019-01-16T16:27:34.437Z,98493.78
2019-01-16T16:30:33.461Z,98476.78
2019-01-16T16:33:25.966Z,98465.39
2019-01-16T16:36:11.262Z,98442.25
2019-01-16T16:39:00.047Z,98424.79
2019-01-16T16:41:49.584Z,98409.48
2019-01-16T16:44:38.879Z,98404.19
2019-01-16T16:47:17.619Z,98404.05
2019-01-16T16:50:10.204Z,98397.42
2019-01-16T16:52:55.699Z,98389.06
2019-01-16T16:55:51.386Z,98377.11
2019-01-16T16:58:36.633Z,98365.23
2019-01-16T17:01:19.442Z,98355.45
2019-01-16T17:03:55.918Z,98334.91
2019-01-16T17:06:42.594Z,98329.55
2019-01-16T17:09:31.972Z,98322.02
2019-01-16T17:12:24.613Z,98314.53
2019-01-16T17:15:26.579Z,98301.34
2019-01-16T17:18:19.064Z,98299.88
2019-01-16T17:21:04.654Z,98288.97
2019-01-16T17:24:09.811Z,98271.50
2019-01-16T17:27:05.272Z,98264.50
2019-01-16T17:29:51.924Z,98247.94
2019-01-16T17:32:30.117Z,98245.23
2019-01-16T17:35:25.870Z,98239.98
2019-01-16T17:38:14.082Z,98229.03
2019-01-16T17:41:16.057Z,98214.66
2019-01-16T17:44:01.419Z,98214.14
2019-01-16T17:46:46.857Z,98205.47
2019-01-16T17:49:28.603Z,98190.64
2019-01-16T17:52:30.547Z,98184.97
2019-01-16T17:55:25.932Z,98176.23
2019-01-16T17:58:11.270Z,98175.21
2019-01-16T18:01:01.012Z,98161.33
2019-01-16T18:03:46.152Z,98160.38
2019-01-16T18:06:31.633Z,98153.78
2019-01-16T18:09:12.100Z,98138.10
2019-01-16T18:12:07.163Z,98137.19
2019-01-16T18:14:42.099Z,98141.91
2019-01-16T18:17:28.769Z,98120.13
2019-01-16T18:20:21.601Z,98099.23
2019-01-16T18:23:20.574Z,98094.78
2019-01-16T18:26:09.930Z,98084.74
2019-01-16T18:28:50.597Z,98080.80
2019-01-16T18:31:29.101Z,98079.83
2019-01-16T18:34:28.092Z,98068.87
2019-01-16T18:37:23.551Z,98065.53
2019-01-16T18:39:57.739Z,98060.93
2019-01-16T18:42:41.102Z,98055.33
2019-01-16T18:45:43.674Z,98039.44
2019-01-16T18:48:39.089Z,98039.58
2019-01-16T18:51:25.785Z,98024.06
2019-01-16T18:54:18.476Z,98032.49
2019-01-16T18:57:07.880Z,98032.17
2019-01-16T18:59:53.580Z,98020.89
2019-01-16T19:02:49.171Z,98018.87
2019-01-16T19:05:41.656Z,98000.81
2019-01-16T19:08:31.455Z,98010.54
2019-01-16T19:11:21.360Z,98015.81
2019-01-16T19:14:06.115Z,98017.45
2019-01-16T19:16:58.733Z,98009.95
2019-01-16T19:19:34.785Z,97993.81
2019-01-16T19:22:24.093Z,97998.06
2019-01-16T19:25:10.761Z,97997.93
2019-01-16T19:28:06.582Z,97989.96
2019-01-16T19:30:52.040Z,97969.36
2019-01-16T19:33:41.661Z,97977.06
2019-01-16T19:36:22.334Z,97980.47
2019-01-16T19:39:07.951Z,97969.88
2019-01-16T19:42:00.540Z,97971.06
2019-01-16T19:45:05.492Z,97961.83
2019-01-16T19:47:52.159Z,97962.08
2019-01-16T19:50:26.912Z,97967.95
2019-01-16T19:53:19.715Z,97960.41
2019-01-16T19:56:21.406Z,97958.13
2019-01-16T19:59:00.161Z,97958.31
2019-01-16T20:01:47.186Z,97954.31
2019-01-16T20:04:42.707Z,97950.72
2019-01-16T20:07:35.500Z,97962.20
2019-01-16T20:10:14.569Z,97951.90
2019-01-16T20:13:01.364Z,97947.00
2019-01-16T20:15:47.624Z,97930.41
2019-01-16T20:18:37.305Z,97926.17
2019-01-16T20:21:20.434Z,97930.27
2019-01-16T20:24:07.242Z,97938.45
2019-01-16T20:26:53.916Z,97924.91
2019-01-16T20:29:46.820Z,97914.81
2019-01-16T20:32:32.274Z,97925.60
2019-01-16T20:35:10.166Z,97923.36
2019-01-16T20:37:56.132Z,97914.20
2019-01-16T20:40:45.420Z,97905.89
2019-01-16T20:43:32.093Z,97939.00
2019-01-16T20:46:17.502Z,97940.41
2019-01-16T20:48:53.656Z,97941.85
2019-01-16T20:51:40.322Z,97942.64
2019-01-16T20:54:26.992Z,97946.19
2019-01-16T20:57:01.197Z,97941.09
2019-01-16T20:59:56.774Z,97938.25
2019-01-16T21:02:42.097Z,97942.31
2019-01-16T21:05:27.014Z,97936.06
2019-01-16T21:08:19.572Z,97934.90
2019-01-16T21:11:15.153Z,97924.52
2019-01-16T21:13:54.347Z,97928.03
2019-01-16T21:16:41.019Z,97922.34
2019-01-16T21:19:33.433Z,97913.42
2019-01-16T21:22:32.173Z,97909.73
2019-01-16T21:25:24.566Z,97904.97
2019-01-16T21:28:16.901Z,97899.73
2019-01-16T21:31:03.091Z,97904.45
2019-01-16T21:33:48.631Z,97900.52
2019-01-16T21:36:44.516Z,97897.91
2019-01-16T21:39:25.558Z,97898.28
2019-01-16T21:42:17.849Z,97899.59
2019-01-16T21:45:03.788Z,97889.66
2019-01-16T21:47:49.058Z,97886.98
2019-01-16T21:50:34.523Z,97874.89
2019-01-16T21:53:30.194Z,97882.36
2019-01-16T21:56:24.781Z,97875.88
2019-01-16T21:59:09.892Z,97886.80
2019-01-16T22:01:56.561Z,97886.34
2019-01-16T22:04:42.124Z,97881.98
2019-01-16T22:07:27.488Z,97881.05
2019-01-16T22:10:17.183Z,97879.37
2019-01-16T22:13:09.316Z,97876.34
2019-01-16T22:15:47.632Z,97873.73
2019-01-16T22:18:43.413Z,97871.52
2019-01-16T22:21:25.773Z,97865.88
2019-01-16T22:24:09.512Z,97858.45
2019-01-16T22:27:05.393Z,97865.88
2019-01-16T22:29:50.826Z,97847.66
2019-01-16T22:32:46.726Z,97846.27
2019-01-16T22:35:33.383Z,97846.36
2019-01-16T22:38:18.775Z,97848.13
2019-01-16T22:41:11.877Z,97842.81
2019-01-16T22:43:57.157Z,97834.64
2019-01-16T22:46:43.929Z,97827.36
2019-01-16T22:49:30.607Z,97826.95
2019-01-16T22:52:35.676Z,97819.66
2019-01-16T22:55:13.827Z,97820.13
2019-01-16T22:58:15.704Z,97815.80
2019-01-16T23:01:06.297Z,97808.04
2019-01-16T23:03:52.931Z,97802.95
2019-01-16T23:06:45.588Z,97802.17
2019-01-16T23:09:38.088Z,97793.02
2019-01-16T23:12:23.976Z,97787.80
2019-01-16T23:15:01.268Z,97776.44
2019-01-16T23:17:53.855Z,97767.29
2019-01-16T23:20:40.716Z,97768.59
2019-01-16T23:23:26.321Z,97769.44
2019-01-16T23:26:10.655Z,97773.21
2019-01-16T23:29:00.176Z,97768.04
2019-01-16T23:31:51.961Z,97767.57
2019-01-16T23:34:34.268Z,97772.28
2019-01-16T23:37:38.971Z,97763.13
2019-01-16T23:40:41.312Z,97770.03
2019-01-16T23:43:27.478Z,97758.68
2019-01-16T23:46:14.144Z,97739.82
2019-01-16T23:49:00.820Z,97748.82
2019-01-16T23:51:56.576Z,97734.75
2019-01-16T23:54:39.598Z,97734.52
2019-01-16T23:57:38.486Z,97727.35
